CheckWX is a tool to help pilots better visualize weather data.  It is not intended as a substitute for an official pre-flight weather briefing.

17:36:31 UTC

KDTA METAR
Delta Municipal Airport
Delta, Utah, USA
Current

22 mins ago

KDTA 211715Z AUTO 20011KT 10SM CLR 31/M02 A3012 RMK AO1
Observed
Jul-21 @ 17:15 UTC
Wind
  • 200° at 11 KTS
Visibility
10 SM
Flight Rules
VFR
Cloud Levels
  • Clear skies
Temperature
31°C / 88°F
Dewpoint
-2°C / 28°F
Humidity
12%
Altimeter
30.12" Hg
Pressure
1020.02 hPa
Previous

42 mins ago

KDTA 211655Z AUTO 21012G19KT 10SM CLR 30/M02 A3012 RMK AO1
Observed
Jul-21 @ 16:55 UTC
Wind
  • 210° at 12 KTS
  • Gusting to 19 KTS
Visibility
10 SM
Flight Rules
VFR
Cloud Levels
  • Clear skies
Temperature
30°C / 86°F
Dewpoint
-2°C / 28°F
Humidity
12%
Altimeter
30.12" Hg
Pressure
1020.02 hPa
Previous

1 hour ago

KDTA 211635Z AUTO 20013G17KT 160V220 10SM CLR 30/M02 A3012 RMK AO1
Observed
Jul-21 @ 16:35 UTC
Wind
  • 200° at 13 KTS
  • Gusting to 17 KTS
Visibility
10 SM
Flight Rules
VFR
Cloud Levels
  • Clear skies
Temperature
30°C / 86°F
Dewpoint
-2°C / 28°F
Humidity
12%
Altimeter
30.12" Hg
Pressure
1020.02 hPa